createdAt,value
2023-04-17T00:00:36.191Z,8.48
2023-04-17T00:03:03.645Z,9.38
2023-04-17T00:05:32.044Z,9.30
2023-04-17T00:08:00.161Z,9.15
2023-04-17T00:10:27.499Z,9.68
2023-04-17T00:12:54.567Z,9.27
2023-04-17T00:15:21.718Z,9.32
2023-04-17T00:17:48.720Z,8.65
2023-04-17T00:20:15.977Z,9.68
2023-04-17T00:22:43.172Z,9.27
2023-04-17T00:25:15.132Z,8.85
2023-04-17T00:27:43.014Z,9.48
2023-04-17T00:30:10.742Z,9.57
2023-04-17T00:32:38.184Z,10.23
2023-04-17T00:35:05.658Z,9.73
2023-04-17T00:37:32.632Z,9.90
2023-04-17T00:39:59.598Z,10.10
2023-04-17T00:42:27.270Z,9.88
2023-04-17T00:44:54.352Z,9.60
2023-04-17T00:47:22.812Z,9.98
2023-04-17T00:49:51.263Z,9.95
2023-04-17T00:52:33.518Z,10.02
2023-04-17T00:55:00.851Z,9.80
2023-04-17T00:57:28.427Z,9.65
2023-04-17T00:59:57.801Z,10.10
2023-04-17T01:02:25.445Z,10.23
2023-04-17T01:04:52.602Z,10.90
2023-04-17T01:07:19.644Z,11.00
2023-04-17T01:09:46.675Z,11.00
2023-04-17T01:12:17.652Z,10.50
2023-04-17T01:14:44.943Z,10.05
2023-04-17T01:17:14.417Z,10.65
2023-04-17T01:19:41.929Z,10.98
2023-04-17T01:22:09.008Z,10.10
2023-04-17T01:24:37.031Z,11.18
2023-04-17T01:27:04.790Z,11.55
2023-04-17T01:29:31.837Z,10.60
2023-04-17T01:31:58.959Z,11.25
2023-04-17T01:34:26.076Z,11.27
2023-04-17T01:36:53.244Z,11.13
2023-04-17T01:39:20.647Z,10.77
2023-04-17T01:41:47.704Z,11.35
2023-04-17T01:44:14.881Z,11.40
2023-04-17T01:46:41.887Z,10.88
2023-04-17T01:49:09.154Z,10.75
2023-04-17T01:51:36.208Z,11.13
2023-04-17T01:54:03.449Z,10.93
2023-04-17T01:56:30.489Z,12.60
2023-04-17T01:58:57.620Z,11.68
2023-04-17T02:01:24.648Z,11.60
2023-04-17T02:03:51.925Z,11.63
2023-04-17T02:06:20.282Z,11.55
2023-04-17T02:08:47.259Z,11.65
2023-04-17T02:11:15.454Z,11.63
2023-04-17T02:13:42.523Z,11.52
2023-04-17T02:16:09.887Z,11.63
2023-04-17T02:18:37.114Z,10.88
2023-04-17T02:21:04.131Z,12.48
2023-04-17T02:23:31.181Z,11.70
2023-04-17T02:25:58.240Z,11.27
2023-04-17T02:28:25.231Z,10.80
2023-04-17T02:30:52.270Z,11.13
2023-04-17T02:33:19.375Z,11.45
2023-04-17T02:35:46.677Z,11.10
2023-04-17T02:38:13.831Z,11.85
2023-04-17T02:40:40.895Z,11.07
2023-04-17T02:43:07.901Z,11.13
2023-04-17T02:45:35.026Z,10.75
2023-04-17T02:48:02.810Z,11.65
2023-04-17T02:50:29.990Z,10.88
2023-04-17T02:52:57.051Z,11.18
2023-04-17T02:55:24.646Z,12.02
2023-04-17T02:57:51.626Z,10.98
2023-04-17T03:00:18.705Z,11.82
2023-04-17T03:02:46.679Z,11.48
2023-04-17T03:05:15.138Z,11.10
2023-04-17T03:07:42.574Z,11.85
2023-04-17T03:10:09.970Z,11.90
2023-04-17T03:12:37.466Z,11.05
2023-04-17T03:15:06.025Z,11.50
2023-04-17T03:17:34.113Z,11.43
2023-04-17T03:20:01.609Z,11.57
2023-04-17T03:22:29.792Z,11.52
2023-04-17T03:24:56.903Z,12.00
2023-04-17T03:27:24.565Z,11.45
2023-04-17T03:29:52.449Z,12.00
2023-04-17T03:32:19.554Z,11.43
2023-04-17T03:34:47.274Z,11.68
2023-04-17T03:37:14.340Z,11.05
2023-04-17T03:39:41.583Z,12.32
2023-04-17T03:42:12.132Z,11.25
2023-04-17T03:44:39.116Z,11.18
2023-04-17T03:47:06.135Z,12.13
2023-04-17T03:49:34.378Z,11.55
2023-04-17T03:52:03.772Z,12.57
2023-04-17T03:54:35.364Z,12.45
2023-04-17T03:57:03.362Z,11.93
2023-04-17T03:59:33.828Z,12.75
2023-04-17T04:02:01.417Z,11.90
2023-04-17T04:04:28.801Z,12.20
2023-04-17T04:06:57.945Z,12.18
2023-04-17T04:09:28.015Z,12.30
2023-04-17T04:11:55.172Z,12.45
2023-04-17T04:14:22.138Z,12.13
2023-04-17T04:16:49.591Z,12.40
2023-04-17T04:19:16.677Z,12.15
2023-04-17T04:21:45.195Z,11.68
2023-04-17T04:24:31.819Z,12.98
2023-04-17T04:27:04.793Z,11.55
2023-04-17T04:29:32.096Z,12.25
2023-04-17T04:32:00.088Z,11.90
2023-04-17T04:34:45.588Z,12.77
2023-04-17T04:37:15.782Z,11.52
2023-04-17T04:39:43.475Z,11.07
2023-04-17T04:42:10.658Z,11.63
2023-04-17T04:44:37.764Z,10.75
2023-04-17T04:47:04.933Z,11.52
2023-04-17T04:49:32.114Z,11.35
2023-04-17T04:52:00.748Z,11.75
2023-04-17T04:54:27.796Z,11.45
2023-04-17T04:57:13.251Z,11.85
2023-04-17T04:59:40.337Z,11.52
2023-04-17T05:02:07.448Z,11.60
2023-04-17T05:04:53.584Z,10.95
2023-04-17T05:07:20.816Z,11.20
2023-04-17T05:09:48.002Z,10.80
2023-04-17T05:12:15.069Z,10.90
2023-04-17T05:14:42.066Z,10.57
2023-04-17T05:17:09.079Z,10.93
2023-04-17T05:19:36.065Z,10.63
2023-04-17T05:22:03.387Z,10.77
2023-04-17T05:24:31.146Z,10.65
2023-04-17T05:26:58.343Z,10.65
2023-04-17T05:29:25.372Z,10.73
2023-04-17T05:31:52.670Z,10.70
2023-04-17T05:34:19.744Z,10.18
2023-04-17T05:36:46.866Z,10.38
2023-04-17T05:39:13.948Z,11.65
2023-04-17T05:41:41.036Z,11.00
2023-04-17T05:44:08.437Z,10.25
2023-04-17T05:46:35.470Z,10.55
2023-04-17T05:49:02.712Z,10.13
2023-04-17T05:51:32.348Z,10.57
2023-04-17T05:53:59.313Z,9.63
2023-04-17T05:56:26.287Z,10.35
2023-04-17T05:58:53.365Z,10.23
2023-04-17T06:01:22.681Z,9.88
2023-04-17T06:03:49.948Z,10.70
2023-04-17T06:06:17.328Z,10.85
2023-04-17T06:08:44.385Z,11.30
2023-04-17T06:11:11.537Z,10.63
2023-04-17T06:13:38.800Z,10.23
2023-04-17T06:16:06.250Z,10.85
2023-04-17T06:18:33.286Z,10.63
2023-04-17T06:21:01.113Z,10.85
2023-04-17T06:23:28.216Z,11.60
2023-04-17T06:25:55.297Z,11.95
2023-04-17T06:28:22.237Z,12.00
2023-04-17T06:30:49.286Z,11.45
2023-04-17T06:33:16.626Z,11.55
2023-04-17T06:35:43.622Z,11.90
2023-04-17T06:38:11.001Z,11.95
2023-04-17T06:40:39.200Z,11.45
2023-04-17T06:43:06.875Z,11.82
2023-04-17T06:45:34.628Z,12.23
2023-04-17T06:48:02.311Z,11.70
2023-04-17T06:50:29.972Z,11.75
2023-04-17T06:52:57.505Z,11.90
2023-04-17T06:55:25.089Z,11.63
2023-04-17T06:57:52.664Z,11.88
2023-04-17T07:00:20.967Z,11.60
2023-04-17T07:02:48.899Z,12.00
2023-04-17T07:05:16.959Z,11.27
2023-04-17T07:07:44.627Z,11.35
2023-04-17T07:10:12.789Z,11.73
2023-04-17T07:12:40.449Z,10.63
2023-04-17T07:15:09.008Z,9.98
2023-04-17T07:17:36.805Z,11.45
2023-04-17T07:20:05.983Z,10.98
2023-04-17T07:22:34.786Z,10.27
2023-04-17T07:25:02.409Z,10.75
2023-04-17T07:27:30.945Z,9.35
2023-04-17T07:29:58.552Z,11.00
2023-04-17T07:32:26.336Z,10.98
2023-04-17T07:34:53.928Z,10.48
2023-04-17T07:37:21.712Z,10.05
2023-04-17T07:39:53.249Z,11.40
2023-04-17T07:42:20.858Z,10.15
2023-04-17T07:44:49.233Z,10.27
2023-04-17T07:47:16.785Z,9.30
2023-04-17T07:49:49.287Z,9.40
2023-04-17T07:52:18.364Z,10.05
2023-04-17T07:54:45.950Z,9.60
2023-04-17T07:57:15.243Z,7.78
2023-04-17T07:59:43.120Z,7.28
2023-04-17T08:02:10.971Z,6.75
2023-04-17T08:04:40.581Z,6.55
2023-04-17T08:07:10.893Z,5.20
2023-04-17T08:09:39.192Z,4.72
2023-04-17T08:12:07.168Z,5.45
2023-04-17T08:14:34.822Z,5.10
2023-04-17T08:17:02.916Z,4.55
2023-04-17T08:19:30.650Z,4.45
2023-04-17T08:22:06.411Z,4.90
2023-04-17T08:24:34.169Z,4.63
2023-04-17T08:27:01.802Z,4.80
2023-04-17T08:29:29.424Z,5.30
2023-04-17T08:32:12.667Z,4.50
2023-04-17T08:34:41.746Z,5.30
2023-04-17T08:37:09.321Z,5.03
2023-04-17T08:39:36.889Z,4.65
2023-04-17T08:42:13.306Z,5.18
2023-04-17T08:44:44.347Z,4.85
2023-04-17T08:47:13.891Z,4.97
2023-04-17T08:49:44.137Z,5.20
2023-04-17T08:52:12.362Z,5.90
2023-04-17T08:54:39.912Z,5.28
2023-04-17T08:57:07.471Z,5.28
2023-04-17T08:59:35.090Z,4.93
2023-04-17T09:02:09.789Z,4.25
2023-04-17T09:04:43.236Z,4.30
2023-04-17T09:07:15.926Z,4.40
2023-04-17T09:09:55.213Z,4.10
2023-04-17T09:12:24.901Z,3.50
2023-04-17T09:14:52.972Z,3.60
2023-04-17T09:17:21.861Z,3.50
2023-04-17T09:20:18.905Z,3.60
2023-04-17T09:22:46.667Z,3.78
2023-04-17T09:25:23.407Z,4.30
2023-04-17T09:27:51.138Z,4.15
2023-04-17T09:30:18.666Z,3.95
2023-04-17T09:32:46.408Z,4.00
2023-04-17T09:35:27.912Z,3.88
2023-04-17T09:37:56.634Z,4.07
2023-04-17T09:40:25.567Z,4.20
2023-04-17T09:43:01.648Z,4.05
2023-04-17T09:45:37.088Z,4.10
2023-04-17T09:48:10.577Z,4.28
2023-04-17T09:50:39.134Z,4.35
2023-04-17T09:53:08.254Z,4.72
2023-04-17T09:55:38.398Z,4.00
2023-04-17T09:58:08.301Z,4.75
2023-04-17T10:00:37.121Z,4.45
2023-04-17T10:03:05.572Z,4.32
2023-04-17T10:05:33.309Z,3.92
2023-04-17T10:08:01.870Z,4.43
2023-04-17T10:10:33.796Z,4.75
2023-04-17T10:13:03.785Z,4.40
2023-04-17T10:15:31.921Z,4.30
2023-04-17T10:18:23.860Z,5.10
2023-04-17T10:20:54.006Z,4.28
2023-04-17T10:23:35.164Z,4.55
2023-04-17T10:26:35.220Z,4.28
2023-04-17T10:29:02.833Z,3.97
2023-04-17T10:32:18.485Z,3.67
2023-04-17T10:34:46.660Z,4.00
2023-04-17T10:37:17.352Z,3.63
2023-04-17T10:39:53.871Z,3.28
2023-04-17T10:42:23.057Z,3.15
2023-04-17T10:44:52.388Z,3.45
2023-04-17T10:47:23.307Z,3.08
2023-04-17T10:49:59.094Z,3.33
2023-04-17T10:52:32.519Z,3.00
2023-04-17T10:55:10.812Z,3.17
2023-04-17T10:58:04.939Z,3.00
2023-04-17T11:00:51.340Z,7.15
2023-04-17T11:03:22.684Z,7.70
2023-04-17T11:05:50.388Z,11.00
2023-04-17T11:08:17.955Z,3.15
2023-04-17T11:10:45.635Z,8.60
2023-04-17T11:13:13.470Z,3.70
2023-04-17T11:15:41.187Z,3.88
2023-04-17T11:18:08.769Z,3.78
2023-04-17T11:20:38.152Z,4.07
2023-04-17T11:23:07.525Z,4.22
2023-04-17T11:25:35.732Z,4.35
2023-04-17T11:28:06.231Z,4.47
2023-04-17T11:30:42.504Z,4.13
2023-04-17T11:33:10.517Z,4.25
2023-04-17T11:35:40.029Z,3.88
2023-04-17T11:38:18.041Z,3.63
2023-04-17T11:40:51.696Z,3.55
2023-04-17T11:43:21.294Z,3.85
2023-04-17T11:45:56.774Z,3.78
2023-04-17T11:48:29.300Z,3.63
2023-04-17T11:50:59.275Z,4.22
2023-04-17T11:53:27.281Z,3.50
2023-04-17T11:56:16.928Z,3.20
2023-04-17T11:58:54.456Z,3.75
2023-04-17T12:01:27.590Z,4.22
2023-04-17T12:03:59.323Z,4.15
2023-04-17T12:06:47.335Z,4.13
2023-04-17T12:09:22.017Z,3.88
2023-04-17T12:11:49.663Z,3.83
2023-04-17T12:14:17.193Z,3.80
2023-04-17T12:16:44.893Z,3.58
2023-04-17T12:19:16.880Z,4.90
2023-04-17T12:21:44.593Z,3.75
2023-04-17T12:24:12.390Z,3.50
2023-04-17T12:26:50.677Z,3.50
2023-04-17T12:29:22.023Z,4.10
2023-04-17T12:31:56.963Z,4.00
2023-04-17T12:34:26.572Z,3.92
2023-04-17T12:36:55.172Z,3.50
2023-04-17T12:39:22.738Z,3.83
2023-04-17T12:41:50.460Z,3.80
2023-04-17T12:44:18.009Z,3.65
2023-04-17T12:46:47.012Z,3.63
2023-04-17T12:49:14.825Z,3.20
2023-04-17T12:51:42.497Z,4.25
2023-04-17T12:54:10.231Z,4.07
2023-04-17T12:56:37.932Z,4.95
2023-04-17T12:59:05.744Z,4.63
2023-04-17T13:01:33.383Z,4.70
2023-04-17T13:04:01.292Z,3.83
2023-04-17T13:06:29.100Z,4.72
2023-04-17T13:08:56.703Z,4.93
2023-04-17T13:11:24.218Z,5.15
2023-04-17T13:13:51.750Z,5.10
2023-04-17T13:16:19.353Z,5.82
2023-04-17T13:18:46.920Z,5.45
2023-04-17T13:21:14.670Z,5.10
2023-04-17T13:23:42.484Z,5.25
2023-04-17T13:26:10.016Z,4.93
2023-04-17T13:28:37.707Z,4.20
2023-04-17T13:31:05.419Z,3.47
2023-04-17T13:33:33.067Z,4.18
2023-04-17T13:36:00.667Z,3.67
2023-04-17T13:38:28.377Z,5.25
2023-04-17T13:40:56.033Z,3.75
2023-04-17T13:43:23.743Z,4.10
2023-04-17T13:45:53.377Z,3.38
2023-04-17T13:48:22.533Z,3.63
2023-04-17T13:50:50.382Z,3.50
2023-04-17T13:53:18.035Z,3.88
2023-04-17T13:55:45.711Z,4.20
2023-04-17T13:58:13.555Z,4.30
2023-04-17T14:00:41.210Z,3.88
2023-04-17T14:03:09.082Z,4.00
2023-04-17T14:05:36.886Z,3.70
2023-04-17T14:08:04.584Z,4.25
2023-04-17T14:10:32.306Z,3.58
2023-04-17T14:13:00.048Z,4.03
2023-04-17T14:15:28.299Z,3.90
2023-04-17T14:17:57.154Z,3.15
2023-04-17T14:20:24.792Z,3.40
2023-04-17T14:22:54.595Z,3.25
2023-04-17T14:25:22.661Z,3.30
2023-04-17T14:27:50.483Z,3.15
2023-04-17T14:30:18.111Z,3.70
2023-04-17T14:32:45.750Z,3.70
2023-04-17T14:35:13.702Z,3.00
2023-04-17T14:37:42.593Z,3.60
2023-04-17T14:40:10.902Z,3.40
2023-04-17T14:42:51.292Z,3.70
2023-04-17T14:47:49.523Z,3.47
2023-04-17T14:50:17.339Z,3.50
2023-04-17T14:52:44.989Z,3.45
2023-04-17T14:55:13.148Z,3.58
2023-04-17T14:57:40.890Z,4.80
2023-04-17T15:00:09.245Z,3.70
2023-04-17T15:02:39.357Z,3.58
2023-04-17T15:05:07.783Z,3.88
2023-04-17T15:07:36.055Z,2.63
2023-04-17T15:10:04.418Z,3.33
2023-04-17T15:12:32.200Z,2.70
2023-04-17T15:14:59.799Z,2.28
2023-04-17T15:17:27.429Z,2.60
2023-04-17T15:19:57.648Z,2.22
2023-04-17T15:22:26.649Z,2.55
2023-04-17T15:24:54.422Z,2.83
2023-04-17T15:27:22.196Z,2.63
2023-04-17T15:29:49.776Z,2.42
2023-04-17T15:32:55.959Z,2.50
2023-04-17T15:35:23.476Z,2.80
2023-04-17T15:37:51.034Z,2.22
2023-04-17T15:40:18.729Z,2.80
2023-04-17T15:42:49.111Z,2.50
2023-04-17T15:45:19.418Z,2.70
2023-04-17T15:47:47.161Z,2.38
2023-04-17T15:50:14.742Z,2.50
2023-04-17T15:52:42.388Z,2.40
2023-04-17T15:55:10.626Z,2.92
2023-04-17T15:57:40.047Z,2.55
2023-04-17T16:00:09.242Z,2.80
2023-04-17T16:02:36.984Z,2.50
2023-04-17T16:06:11.427Z,2.70
2023-04-17T16:08:39.017Z,2.90
2023-04-17T16:11:06.603Z,2.25
2023-04-17T16:13:34.241Z,3.47
2023-04-17T16:16:01.914Z,2.95
2023-04-17T16:18:29.671Z,2.97
2023-04-17T16:20:57.340Z,2.53
2023-04-17T16:23:24.950Z,2.63
2023-04-17T16:25:58.229Z,2.53
2023-04-17T16:28:25.402Z,2.60
2023-04-17T16:30:52.377Z,4.38
2023-04-17T16:33:19.415Z,2.80
2023-04-17T16:35:46.647Z,2.75
2023-04-17T16:38:32.383Z,2.90
2023-04-17T16:41:02.065Z,2.97
2023-04-17T16:43:30.638Z,3.10
2023-04-17T16:45:58.491Z,3.08
2023-04-17T16:48:27.045Z,2.60
2023-04-17T16:50:54.222Z,2.88
2023-04-17T16:53:59.014Z,2.95
2023-04-17T16:56:26.133Z,4.30
2023-04-17T16:58:53.253Z,3.33
2023-04-17T17:01:20.721Z,6.65
2023-04-17T17:03:47.966Z,4.45
2023-04-17T17:06:15.040Z,3.88
2023-04-17T17:08:46.787Z,3.58
2023-04-17T17:11:15.156Z,3.60
2023-04-17T17:14:01.140Z,3.47
2023-04-17T17:16:28.266Z,3.15
2023-04-17T17:18:55.634Z,3.80
2023-04-17T17:21:22.727Z,3.55
2023-04-17T17:23:49.748Z,4.30
2023-04-17T17:26:17.799Z,3.63
2023-04-17T17:28:50.992Z,3.53
2023-04-17T17:31:18.668Z,4.60
2023-04-17T17:34:16.690Z,4.47
2023-04-17T17:36:51.680Z,3.63
2023-04-17T17:39:18.857Z,3.90
2023-04-17T17:41:47.353Z,3.90
2023-04-17T17:44:15.062Z,4.13
2023-04-17T17:46:42.406Z,5.57
2023-04-17T17:49:09.912Z,3.95
2023-04-17T17:51:37.038Z,4.13
2023-04-17T17:54:04.286Z,3.90
2023-04-17T17:56:31.370Z,4.00
2023-04-17T17:58:58.477Z,3.92
2023-04-17T18:01:25.694Z,4.88
2023-04-17T18:03:53.479Z,4.40
2023-04-17T18:06:21.371Z,3.75
2023-04-17T18:08:48.514Z,6.22
2023-04-17T18:11:15.656Z,3.67
2023-04-17T18:13:42.742Z,3.92
2023-04-17T18:16:10.219Z,3.97
2023-04-17T18:18:37.350Z,3.90
2023-04-17T18:21:08.156Z,4.30
2023-04-17T18:23:55.554Z,4.20
2023-04-17T18:26:22.743Z,4.30
2023-04-17T18:28:49.924Z,4.35
2023-04-17T18:31:17.228Z,4.55
2023-04-17T18:33:44.486Z,5.03
2023-04-17T18:36:11.776Z,4.78
2023-04-17T18:38:38.822Z,5.05
2023-04-17T18:41:05.865Z,4.47
2023-04-17T18:43:51.446Z,5.00
2023-04-17T18:46:18.760Z,4.95
2023-04-17T18:48:45.786Z,4.93
2023-04-17T18:51:14.920Z,4.60
2023-04-17T18:53:41.991Z,4.30
2023-04-17T18:56:10.897Z,5.47
2023-04-17T18:58:40.431Z,4.78
2023-04-17T19:01:10.469Z,4.78
2023-04-17T19:03:38.588Z,5.22
2023-04-17T19:06:06.861Z,5.68
2023-04-17T19:08:34.515Z,4.85
2023-04-17T19:11:02.031Z,5.28
2023-04-17T19:13:29.279Z,5.97
2023-04-17T19:15:56.389Z,5.00
2023-04-17T19:18:23.970Z,4.75
2023-04-17T19:20:51.037Z,5.30
2023-04-17T19:23:18.186Z,5.07
2023-04-17T19:25:45.281Z,5.55
2023-04-17T19:28:13.461Z,5.80
2023-04-17T19:30:40.668Z,4.82
2023-04-17T19:33:07.882Z,6.97
2023-04-17T19:35:34.987Z,5.13
2023-04-17T19:38:02.255Z,4.90
2023-04-17T19:40:29.512Z,5.22
2023-04-17T19:43:01.374Z,4.55
2023-04-17T19:45:28.976Z,5.70
2023-04-17T19:47:57.277Z,5.13
2023-04-17T19:50:27.228Z,4.93
2023-04-17T19:52:55.696Z,5.15
2023-04-17T19:55:22.751Z,5.60
2023-04-17T19:57:51.052Z,5.82
2023-04-17T20:00:18.602Z,6.13
2023-04-17T20:02:46.272Z,5.80
2023-04-17T20:05:13.442Z,5.47
2023-04-17T20:07:40.578Z,6.25
2023-04-17T20:10:08.330Z,5.93
2023-04-17T20:12:35.649Z,6.68
2023-04-17T20:15:02.908Z,6.03
2023-04-17T20:17:30.270Z,5.63
2023-04-17T20:19:57.297Z,5.60
2023-04-17T20:22:24.395Z,5.70
2023-04-17T20:24:51.475Z,5.70
2023-04-17T20:27:18.634Z,6.13
2023-04-17T20:29:45.686Z,5.50
2023-04-17T20:32:12.896Z,6.10
2023-04-17T20:34:40.277Z,7.32
2023-04-17T20:37:07.299Z,6.15
2023-04-17T20:39:34.314Z,6.50
2023-04-17T20:42:02.162Z,6.53
2023-04-17T20:44:29.187Z,7.00
2023-04-17T20:46:56.173Z,6.38
2023-04-17T20:49:23.197Z,5.53
2023-04-17T20:51:51.190Z,5.78
2023-04-17T20:54:18.359Z,5.68
2023-04-17T20:56:45.516Z,6.22
2023-04-17T20:59:12.551Z,6.10
2023-04-17T21:01:39.951Z,6.10
2023-04-17T21:04:07.178Z,6.00
2023-04-17T21:06:34.240Z,6.15
2023-04-17T21:09:01.358Z,6.15
2023-04-17T21:11:28.544Z,6.28
2023-04-17T21:13:55.824Z,6.45
2023-04-17T21:16:22.949Z,6.03
2023-04-17T21:18:50.033Z,5.35
2023-04-17T21:21:17.113Z,6.47
2023-04-17T21:23:44.132Z,6.22
2023-04-17T21:26:11.144Z,6.15
2023-04-17T21:28:38.316Z,5.75
2023-04-17T21:31:09.990Z,5.93
2023-04-17T21:33:37.396Z,6.53
2023-04-17T21:36:04.843Z,6.07
2023-04-17T21:38:31.932Z,6.80
2023-04-17T21:40:59.002Z,6.85
2023-04-17T21:43:26.054Z,6.57
2023-04-17T21:45:57.027Z,6.75
2023-04-17T21:48:24.194Z,6.88
2023-04-17T21:50:51.441Z,6.40
2023-04-17T21:53:18.633Z,6.78
2023-04-17T21:55:45.755Z,6.95
2023-04-17T21:58:12.794Z,6.82
2023-04-17T22:00:39.839Z,6.50
2023-04-17T22:03:06.989Z,7.13
2023-04-17T22:05:34.042Z,7.10
2023-04-17T22:08:01.637Z,8.95
2023-04-17T22:10:29.692Z,6.70
2023-04-17T22:12:57.017Z,6.40
2023-04-17T22:15:24.555Z,7.03
2023-04-17T22:17:51.667Z,7.07
2023-04-17T22:20:19.512Z,6.78
2023-04-17T22:22:47.618Z,7.82
2023-04-17T22:25:14.662Z,6.93
2023-04-17T22:27:41.783Z,7.63
2023-04-17T22:30:09.109Z,7.15
2023-04-17T22:32:36.472Z,7.45
2023-04-17T22:35:04.485Z,7.72
2023-04-17T22:37:31.572Z,7.13
2023-04-17T22:39:58.621Z,6.93
2023-04-17T22:42:25.878Z,6.18
2023-04-17T22:44:53.086Z,6.78
2023-04-17T22:47:21.810Z,6.63
2023-04-17T22:49:48.862Z,6.05
2023-04-17T22:52:16.077Z,7.03
2023-04-17T22:54:43.050Z,6.43
2023-04-17T22:57:11.389Z,6.72
2023-04-17T22:59:38.478Z,6.68
2023-04-17T23:02:05.760Z,6.68
2023-04-17T23:04:32.861Z,6.93
2023-04-17T23:06:59.879Z,6.95
2023-04-17T23:09:26.964Z,6.78
2023-04-17T23:11:53.952Z,6.75
2023-04-17T23:14:20.940Z,6.32
2023-04-17T23:16:47.989Z,6.97
2023-04-17T23:19:14.971Z,6.55
2023-04-17T23:21:42.283Z,6.15
2023-04-17T23:24:09.410Z,6.97
2023-04-17T23:26:36.416Z,6.25
2023-04-17T23:29:03.474Z,6.90
2023-04-17T23:31:30.573Z,7.03
2023-04-17T23:33:57.586Z,6.55
2023-04-17T23:36:24.916Z,6.95
2023-04-17T23:38:52.004Z,6.57
2023-04-17T23:41:19.182Z,6.65
2023-04-17T23:43:46.453Z,6.95
2023-04-17T23:46:13.471Z,7.20
2023-04-17T23:48:40.563Z,7.50
2023-04-17T23:51:07.595Z,6.75
2023-04-17T23:53:34.570Z,7.20
2023-04-17T23:56:02.146Z,8.13
2023-04-17T23:58:29.395Z,6.95
